createdAt,value
2023-01-10T00:02:54.869Z,4.09
2023-01-10T00:06:00.768Z,4.29
2023-01-10T00:09:07.355Z,4.24
2023-01-10T00:12:31.034Z,4.18
2023-01-10T00:15:38.799Z,4.13
2023-01-10T00:18:44.998Z,4.37
2023-01-10T00:21:51.113Z,4.32
2023-01-10T00:24:57.423Z,4.28
2023-01-10T00:28:11.031Z,4.30
2023-01-10T00:31:19.021Z,4.15
2023-01-10T00:34:25.833Z,4.15
2023-01-10T00:37:32.198Z,4.32
2023-01-10T00:40:38.400Z,4.37
2023-01-10T00:43:59.475Z,4.47
2023-01-10T00:47:07.496Z,4.54
2023-01-10T00:50:13.867Z,4.23
2023-01-10T00:53:20.407Z,4.50
2023-01-10T00:56:27.004Z,4.45
2023-01-10T00:59:33.103Z,4.59
2023-01-10T01:02:40.945Z,4.45
2023-01-10T01:05:48.844Z,4.63
2023-01-10T01:08:55.362Z,4.57
2023-01-10T01:12:01.984Z,4.55
2023-01-10T01:15:09.456Z,4.60
2023-01-10T01:18:19.150Z,4.68
2023-01-10T01:21:28.345Z,4.72
2023-01-10T01:24:34.582Z,4.50
2023-01-10T01:27:41.014Z,4.42
2023-01-10T01:30:47.523Z,4.46
2023-01-10T01:33:55.463Z,4.49
2023-01-10T01:37:01.820Z,4.32
2023-01-10T01:40:09.483Z,4.51
2023-01-10T01:43:27.300Z,4.77
2023-01-10T01:46:36.286Z,4.76
2023-01-10T01:49:46.333Z,4.79
2023-01-10T01:52:55.591Z,4.69
2023-01-10T01:56:06.702Z,4.96
2023-01-10T01:59:17.112Z,4.86
2023-01-10T02:02:26.972Z,5.08
2023-01-10T02:05:37.213Z,5.12
2023-01-10T02:08:50.688Z,5.09
2023-01-10T02:11:57.552Z,5.04
2023-01-10T02:15:05.180Z,5.06
2023-01-10T02:18:12.236Z,5.96
2023-01-10T02:21:47.643Z,6.07
2023-01-10T02:25:30.868Z,6.26
2023-01-10T02:29:12.960Z,6.22
2023-01-10T02:32:43.813Z,6.02
2023-01-10T02:36:06.973Z,6.45
2023-01-10T02:39:20.364Z,6.38
2023-01-10T02:42:35.695Z,6.52
2023-01-10T02:45:48.629Z,6.40
2023-01-10T02:48:57.329Z,6.47
2023-01-10T02:52:03.566Z,6.42
2023-01-10T02:55:10.049Z,6.46
2023-01-10T02:58:32.420Z,6.71
2023-01-10T03:01:48.626Z,6.52
2023-01-10T03:05:04.994Z,6.54
2023-01-10T03:08:19.895Z,6.48
2023-01-10T03:11:41.189Z,6.60
2023-01-10T03:14:49.499Z,6.55
2023-01-10T03:17:59.504Z,6.79
2023-01-10T03:21:09.301Z,6.81
2023-01-10T03:24:20.172Z,6.79
2023-01-10T03:27:34.947Z,6.81
2023-01-10T03:30:46.829Z,6.91
2023-01-10T03:33:53.699Z,6.90
2023-01-10T03:37:08.565Z,6.95
2023-01-10T03:40:22.685Z,6.94
2023-01-10T03:44:07.913Z,6.29
2023-01-10T03:47:23.602Z,6.00
2023-01-10T03:50:31.805Z,5.86
2023-01-10T03:53:41.353Z,6.01
2023-01-10T03:56:50.026Z,6.11
2023-01-10T03:59:58.407Z,5.98
2023-01-10T04:03:04.788Z,5.88
2023-01-10T04:06:11.103Z,5.92
2023-01-10T04:09:18.702Z,5.99
2023-01-10T04:12:25.908Z,5.74
2023-01-10T04:15:32.735Z,5.87
2023-01-10T04:18:39.361Z,5.89
2023-01-10T04:21:45.754Z,5.91
2023-01-10T04:24:54.561Z,5.71
2023-01-10T04:28:00.910Z,5.84
2023-01-10T04:31:07.247Z,5.90
2023-01-10T04:34:13.849Z,5.75
2023-01-10T04:37:19.922Z,5.87
2023-01-10T04:40:27.757Z,5.64
2023-01-10T04:43:33.789Z,5.41
2023-01-10T04:46:40.197Z,5.61
2023-01-10T04:49:46.427Z,5.52
2023-01-10T04:52:52.794Z,5.56
2023-01-10T04:56:05.536Z,5.68
2023-01-10T04:59:12.211Z,5.56
2023-01-10T05:02:18.742Z,5.72
2023-01-10T05:05:25.546Z,5.71
2023-01-10T05:08:31.988Z,5.61
2023-01-10T05:11:39.831Z,5.50
2023-01-10T05:14:46.422Z,5.63
2023-01-10T05:17:59.386Z,5.50
2023-01-10T05:21:07.852Z,5.54
2023-01-10T05:24:14.092Z,5.61
2023-01-10T05:27:21.796Z,5.59
2023-01-10T05:30:28.266Z,5.57
2023-01-10T05:33:34.357Z,5.77
2023-01-10T05:36:40.802Z,6.14
2023-01-10T05:39:47.072Z,6.61
2023-01-10T05:42:54.996Z,6.75
2023-01-10T05:46:01.350Z,6.68
2023-01-10T05:49:07.871Z,6.77
2023-01-10T05:52:14.094Z,6.88
2023-01-10T05:55:20.498Z,6.86
2023-01-10T05:58:28.806Z,6.68
2023-01-10T06:01:35.546Z,6.76
2023-01-10T06:04:41.749Z,6.76
2023-01-10T06:07:48.192Z,6.82
2023-01-10T06:10:54.915Z,6.70
2023-01-10T06:14:02.666Z,6.88
2023-01-10T06:17:10.332Z,6.73
2023-01-10T06:20:17.221Z,6.69
2023-01-10T06:23:23.614Z,6.58
2023-01-10T06:26:30.240Z,6.62
2023-01-10T06:29:38.159Z,6.68
2023-01-10T06:32:44.654Z,6.55
2023-01-10T06:35:51.024Z,6.63
2023-01-10T06:38:57.345Z,6.73
2023-01-10T06:42:03.316Z,6.66
2023-01-10T06:45:12.401Z,6.55
2023-01-10T06:48:18.492Z,6.46
2023-01-10T06:51:24.524Z,6.57
2023-01-10T06:54:30.998Z,6.50
2023-01-10T06:57:38.686Z,6.50
2023-01-10T07:00:46.375Z,6.44
2023-01-10T07:03:53.022Z,6.53
2023-01-10T07:06:59.249Z,6.48
2023-01-10T07:10:06.249Z,6.38
2023-01-10T07:13:12.762Z,6.35
2023-01-10T07:16:20.788Z,6.38
2023-01-10T07:19:26.901Z,6.44
2023-01-10T07:22:33.385Z,6.30
2023-01-10T07:25:39.478Z,6.43
2023-01-10T07:28:46.277Z,6.41
2023-01-10T07:31:53.833Z,6.32
2023-01-10T07:35:00.305Z,6.45
2023-01-10T07:38:06.609Z,6.28
2023-01-10T07:41:12.724Z,6.19
2023-01-10T07:44:19.027Z,6.19
2023-01-10T07:47:28.199Z,6.11
2023-01-10T07:50:36.279Z,6.20
2023-01-10T07:53:42.632Z,6.22
2023-01-10T07:56:49.705Z,6.17
2023-01-10T07:59:55.989Z,6.07
2023-01-10T08:03:03.805Z,6.34
2023-01-10T08:06:11.815Z,6.11
2023-01-10T08:09:18.262Z,6.03
2023-01-10T08:12:26.272Z,5.87
2023-01-10T08:15:32.642Z,5.69
2023-01-10T08:18:42.634Z,5.89
2023-01-10T08:21:48.759Z,6.08
2023-01-10T08:24:54.939Z,5.88
2023-01-10T08:28:01.566Z,6.05
2023-01-10T08:31:09.361Z,6.14
2023-01-10T08:34:17.351Z,6.06
2023-01-10T08:37:23.495Z,6.03
2023-01-10T08:40:29.984Z,5.82
2023-01-10T08:43:36.344Z,6.24
2023-01-10T08:46:43.224Z,5.87
2023-01-10T08:49:51.150Z,5.78
2023-01-10T08:52:59.313Z,5.88
2023-01-10T08:56:05.906Z,5.96
2023-01-10T08:59:12.567Z,5.95
2023-01-10T09:02:18.764Z,6.02
2023-01-10T09:05:28.394Z,5.85
2023-01-10T09:08:35.248Z,5.80
2023-01-10T09:11:42.043Z,5.73
2023-01-10T09:14:49.387Z,5.76
2023-01-10T09:17:56.520Z,5.84
2023-01-10T09:21:05.806Z,5.77
2023-01-10T09:24:12.463Z,6.03
2023-01-10T09:27:19.124Z,5.71
2023-01-10T09:30:26.041Z,5.85
2023-01-10T09:33:45.651Z,5.87
2023-01-10T09:36:55.079Z,6.04
2023-01-10T09:40:01.458Z,5.90
2023-01-10T09:43:17.079Z,5.56
2023-01-10T09:46:29.366Z,5.74
2023-01-10T09:49:49.532Z,5.37
2023-01-10T09:53:04.334Z,5.27
2023-01-10T09:56:14.075Z,5.72
2023-01-10T09:59:25.064Z,5.62
2023-01-10T10:02:34.205Z,5.65
2023-01-10T10:05:40.506Z,5.33
2023-01-10T10:08:49.229Z,5.58
2023-01-10T10:12:10.809Z,5.69
2023-01-10T10:15:25.450Z,5.74
2023-01-10T10:18:42.372Z,5.61
2023-01-10T10:22:00.113Z,5.38
2023-01-10T10:25:19.770Z,5.43
2023-01-10T10:28:54.039Z,5.67
2023-01-10T10:32:21.494Z,5.49
2023-01-10T10:35:33.062Z,5.59
2023-01-10T10:38:43.664Z,5.82
2023-01-10T10:41:54.436Z,5.64
2023-01-10T10:45:05.149Z,5.25
2023-01-10T10:48:16.623Z,5.53
2023-01-10T10:51:29.103Z,5.22
2023-01-10T10:54:37.478Z,5.44
2023-01-10T10:57:59.469Z,5.80
2023-01-10T11:01:07.089Z,5.78
2023-01-10T11:04:18.236Z,5.55
2023-01-10T11:07:25.921Z,5.64
2023-01-10T11:10:36.722Z,5.74
2023-01-10T11:13:48.149Z,5.79
2023-01-10T11:16:54.527Z,5.60
2023-01-10T11:20:02.748Z,5.73
2023-01-10T11:23:10.504Z,5.58
2023-01-10T11:26:27.689Z,5.89
2023-01-10T11:29:41.002Z,5.76
2023-01-10T11:32:53.417Z,5.83
2023-01-10T11:36:03.245Z,5.90
2023-01-10T11:39:17.896Z,5.58
2023-01-10T11:42:30.642Z,5.55
2023-01-10T11:45:38.815Z,5.61
2023-01-10T11:49:05.075Z,5.81
2023-01-10T11:52:20.214Z,5.48
2023-01-10T11:55:29.252Z,5.59
2023-01-10T11:58:38.390Z,5.57
2023-01-10T12:01:49.555Z,6.03
2023-01-10T12:04:58.316Z,6.20
2023-01-10T12:08:09.700Z,6.06
2023-01-10T12:11:27.739Z,5.88
2023-01-10T12:14:33.992Z,6.05
2023-01-10T12:17:41.945Z,5.91
2023-01-10T12:20:50.693Z,5.60
2023-01-10T12:24:02.136Z,5.96
2023-01-10T12:27:12.424Z,6.09
2023-01-10T12:30:24.365Z,6.11
2023-01-10T12:33:36.138Z,6.18
2023-01-10T12:36:50.712Z,6.16
2023-01-10T12:40:02.109Z,6.02
2023-01-10T12:43:34.277Z,6.03
2023-01-10T12:47:09.261Z,6.03
2023-01-10T12:53:50.026Z,5.90
2023-01-10T12:57:00.114Z,5.78
2023-01-10T13:00:17.644Z,5.97
2023-01-10T13:03:30.928Z,5.90
2023-01-10T13:06:42.214Z,5.90
2023-01-10T13:09:50.059Z,5.96
2023-01-10T13:13:00.655Z,6.04
2023-01-10T13:16:25.899Z,5.87
2023-01-10T13:19:32.495Z,5.89
2023-01-10T13:22:40.075Z,5.73
2023-01-10T13:25:56.271Z,5.83
2023-01-10T13:29:03.991Z,5.99
2023-01-10T13:32:23.505Z,6.00
2023-01-10T13:35:38.679Z,5.89
2023-01-10T13:38:52.987Z,6.03
2023-01-10T13:42:46.063Z,5.93
2023-01-10T13:46:38.572Z,5.50
2023-01-10T13:49:45.710Z,5.69
2023-01-10T13:52:52.820Z,5.55
2023-01-10T13:55:59.203Z,5.73
2023-01-10T13:59:29.792Z,5.71
2023-01-10T14:02:46.850Z,5.87
2023-01-10T14:05:53.173Z,5.77
2023-01-10T14:09:01.904Z,5.64
2023-01-10T14:12:18.604Z,5.61
2023-01-10T14:15:29.977Z,5.58
2023-01-10T14:18:41.980Z,5.37
2023-01-10T14:21:52.955Z,5.29
2023-01-10T14:25:01.206Z,5.45
2023-01-10T14:28:21.041Z,5.64
2023-01-10T14:31:28.192Z,5.60
2023-01-10T14:34:38.977Z,5.49
2023-01-10T14:37:49.347Z,5.58
2023-01-10T14:41:00.030Z,5.62
2023-01-10T14:44:12.100Z,5.38
2023-01-10T14:47:30.176Z,5.47
2023-01-10T14:50:37.998Z,5.59
2023-01-10T14:53:44.457Z,5.84
2023-01-10T14:56:52.394Z,5.89
2023-01-10T15:00:10.747Z,5.27
2023-01-10T15:03:20.493Z,5.61
2023-01-10T15:06:28.436Z,5.96
2023-01-10T15:09:34.893Z,6.31
2023-01-10T15:12:41.159Z,5.88
2023-01-10T15:15:49.218Z,6.56
2023-01-10T15:18:58.447Z,5.55
2023-01-10T15:22:19.189Z,5.25
2023-01-10T15:25:33.608Z,5.36
2023-01-10T15:28:39.992Z,5.06
2023-01-10T15:31:46.442Z,4.96
2023-01-10T15:34:55.759Z,5.19
2023-01-10T15:38:08.964Z,5.25
2023-01-10T15:41:20.427Z,5.10
2023-01-10T15:44:37.138Z,4.98
2023-01-10T15:47:52.861Z,5.13
2023-01-10T15:51:03.766Z,5.11
2023-01-10T15:54:30.816Z,4.91
2023-01-10T15:57:37.485Z,4.93
2023-01-10T16:00:45.985Z,4.95
2023-01-10T16:03:54.143Z,4.94
2023-01-10T16:07:08.891Z,4.79
2023-01-10T16:10:21.573Z,4.83
2023-01-10T16:13:27.661Z,4.78
2023-01-10T16:16:34.094Z,4.70
2023-01-10T16:19:40.293Z,4.69
2023-01-10T16:22:48.183Z,4.58
2023-01-10T16:25:59.498Z,4.39
2023-01-10T16:29:06.005Z,4.50
2023-01-10T16:32:15.503Z,4.41
2023-01-10T16:35:22.499Z,4.38
2023-01-10T16:38:30.229Z,4.27
2023-01-10T16:41:55.294Z,4.22
2023-01-10T16:45:01.449Z,4.31
2023-01-10T16:48:07.969Z,4.03
2023-01-10T16:51:18.681Z,4.01
2023-01-10T16:54:26.772Z,3.99
2023-01-10T16:57:34.453Z,4.13
2023-01-10T17:00:42.453Z,4.06
2023-01-10T17:03:49.064Z,4.13
2023-01-10T17:06:56.762Z,4.20
2023-01-10T17:10:04.532Z,4.19
2023-01-10T17:13:12.916Z,4.23
2023-01-10T17:16:19.862Z,4.02
2023-01-10T17:19:26.440Z,4.07
2023-01-10T17:22:33.327Z,4.23
2023-01-10T17:25:39.735Z,4.15
2023-01-10T17:28:50.541Z,4.15
2023-01-10T17:31:57.002Z,4.01
2023-01-10T17:35:03.275Z,3.93
2023-01-10T17:38:13.078Z,3.79
2023-01-10T17:41:19.676Z,3.88
2023-01-10T17:44:27.684Z,3.92
2023-01-10T17:47:34.181Z,4.10
2023-01-10T17:50:40.869Z,4.05
2023-01-10T17:53:47.297Z,4.19
2023-01-10T17:56:53.719Z,4.27
2023-01-10T18:00:01.675Z,4.23
2023-01-10T18:03:08.331Z,4.12
2023-01-10T18:06:23.328Z,4.26
2023-01-10T18:09:30.440Z,4.04
2023-01-10T18:12:36.893Z,4.10
2023-01-10T18:15:46.598Z,4.17
2023-01-10T18:18:52.878Z,4.01
2023-01-10T18:21:58.967Z,4.56
2023-01-10T18:25:06.041Z,4.79
2023-01-10T18:28:12.629Z,5.01
2023-01-10T18:31:21.090Z,4.70
2023-01-10T18:34:27.770Z,4.83
2023-01-10T18:37:34.656Z,4.89
2023-01-10T18:40:42.493Z,4.83
2023-01-10T18:43:49.439Z,4.79
2023-01-10T18:46:57.223Z,4.81
2023-01-10T18:50:03.417Z,4.80
2023-01-10T18:53:09.642Z,4.53
2023-01-10T18:56:17.264Z,4.76
2023-01-10T18:59:23.805Z,5.01
2023-01-10T19:02:31.673Z,5.11
2023-01-10T19:05:38.425Z,4.82
2023-01-10T19:08:45.232Z,4.94
2023-01-10T19:11:51.817Z,5.09
2023-01-10T19:14:58.459Z,4.80
2023-01-10T19:18:06.455Z,4.81
2023-01-10T19:21:16.106Z,4.60
2023-01-10T19:24:24.616Z,4.53
2023-01-10T19:27:30.864Z,4.49
2023-01-10T19:30:37.105Z,4.48
2023-01-10T19:33:46.251Z,4.55
2023-01-10T19:36:52.626Z,4.48
2023-01-10T19:39:59.075Z,4.42
2023-01-10T19:43:05.749Z,4.31
2023-01-10T19:46:13.279Z,4.07
2023-01-10T19:49:21.621Z,4.02
2023-01-10T19:52:28.689Z,4.15
2023-01-10T19:55:35.699Z,4.10
2023-01-10T19:58:42.175Z,4.09
2023-01-10T20:01:48.910Z,4.05
2023-01-10T20:04:56.578Z,3.96
2023-01-10T20:08:03.559Z,4.03
2023-01-10T20:11:10.585Z,4.06
2023-01-10T20:14:19.190Z,3.98
2023-01-10T20:17:25.425Z,3.62
2023-01-10T20:20:33.087Z,3.66
2023-01-10T20:23:40.620Z,3.81
2023-01-10T20:26:48.599Z,3.82
2023-01-10T20:29:55.126Z,3.94
2023-01-10T20:33:01.071Z,3.74
2023-01-10T20:36:11.671Z,3.62
2023-01-10T20:39:18.095Z,3.72
2023-01-10T20:42:24.203Z,3.42
2023-01-10T20:45:30.305Z,3.37
2023-01-10T20:48:36.823Z,3.45
2023-01-10T20:51:44.641Z,3.40
2023-01-10T20:54:51.002Z,3.36
2023-01-10T20:57:57.251Z,3.45
2023-01-10T21:01:04.383Z,3.31
2023-01-10T21:04:10.985Z,3.51
2023-01-10T21:07:18.684Z,3.26
2023-01-10T21:10:25.456Z,3.39
2023-01-10T21:13:31.938Z,3.39
2023-01-10T21:16:38.240Z,3.40
2023-01-10T21:19:44.856Z,3.39
2023-01-10T21:22:52.597Z,3.47
2023-01-10T21:26:04.209Z,3.50
2023-01-10T21:29:12.989Z,3.53
2023-01-10T21:32:19.415Z,3.41
2023-01-10T21:35:25.825Z,3.46
2023-01-10T21:38:36.326Z,3.42
2023-01-10T21:42:00.375Z,3.38
2023-01-10T21:45:08.562Z,3.37
2023-01-10T21:48:14.968Z,3.59
2023-01-10T21:51:21.005Z,3.49
2023-01-10T21:54:28.828Z,3.58
2023-01-10T21:57:35.047Z,3.56
2023-01-10T22:00:41.661Z,3.49
2023-01-10T22:03:49.622Z,3.56
2023-01-10T22:06:56.359Z,3.53
2023-01-10T22:10:04.457Z,3.58
2023-01-10T22:13:10.657Z,3.63
2023-01-10T22:16:17.082Z,3.43
2023-01-10T22:19:23.503Z,3.47
2023-01-10T22:22:30.065Z,3.46
2023-01-10T22:25:38.077Z,3.41
2023-01-10T22:28:44.400Z,3.48
2023-01-10T22:31:51.318Z,3.49
2023-01-10T22:34:57.678Z,3.47
2023-01-10T22:38:03.967Z,3.47
2023-01-10T22:41:13.593Z,3.55
2023-01-10T22:44:21.926Z,3.25
2023-01-10T22:47:28.544Z,3.36
2023-01-10T22:50:35.160Z,3.29
2023-01-10T22:53:41.357Z,3.50
2023-01-10T22:56:50.044Z,3.57
2023-01-10T22:59:56.499Z,3.45
2023-01-10T23:03:03.272Z,3.42
2023-01-10T23:06:10.376Z,3.51
2023-01-10T23:09:17.361Z,3.60
2023-01-10T23:12:25.181Z,3.47
2023-01-10T23:15:32.159Z,3.43
2023-01-10T23:18:38.177Z,3.53
2023-01-10T23:21:44.485Z,3.54
2023-01-10T23:24:51.134Z,3.52
2023-01-10T23:27:58.737Z,3.50
2023-01-10T23:31:06.154Z,3.50
2023-01-10T23:34:12.653Z,3.54
2023-01-10T23:37:19.202Z,3.59
2023-01-10T23:40:25.614Z,3.25
2023-01-10T23:43:33.745Z,3.57
2023-01-10T23:46:39.844Z,3.38
2023-01-10T23:49:46.218Z,3.31
2023-01-10T23:52:52.425Z,3.33
2023-01-10T23:55:59.169Z,3.52
2023-01-10T23:59:07.200Z,3.33
